createdAt,value
2019-05-03T00:01:24.677Z,0.60
2019-05-03T00:03:54.800Z,1.07
2019-05-03T00:06:24.636Z,1.03
2019-05-03T00:08:56.174Z,0.63
2019-05-03T00:11:25.969Z,0.60
2019-05-03T00:13:56.297Z,0.87
2019-05-03T00:16:32.518Z,2.30
2019-05-03T00:19:03.451Z,1.13
2019-05-03T00:21:34.335Z,1.30
2019-05-03T00:24:04.280Z,2.40
2019-05-03T00:26:34.297Z,4.10
2019-05-03T00:29:04.606Z,1.73
2019-05-03T00:31:34.587Z,3.17
2019-05-03T00:34:09.285Z,1.00
2019-05-03T00:36:44.304Z,0.53
2019-05-03T00:39:24.118Z,0.97
2019-05-03T00:41:54.328Z,0.80
2019-05-03T00:44:26.363Z,2.30
2019-05-03T00:46:56.274Z,0.77
2019-05-03T00:49:26.472Z,1.80
2019-05-03T00:51:56.544Z,1.40
2019-05-03T00:54:26.422Z,3.87
2019-05-03T00:56:56.816Z,4.10
2019-05-03T00:59:27.521Z,2.40
2019-05-03T01:01:57.537Z,1.23
2019-05-03T01:04:27.621Z,1.53
2019-05-03T01:07:03.032Z,1.77
2019-05-03T01:09:33.221Z,1.23
2019-05-03T01:12:03.287Z,2.13
2019-05-03T01:14:34.327Z,2.07
2019-05-03T01:17:04.364Z,2.40
2019-05-03T01:19:35.025Z,2.10
2019-05-03T01:22:05.209Z,1.43
2019-05-03T01:24:37.102Z,1.20
2019-05-03T01:27:07.195Z,1.27
2019-05-03T01:29:37.175Z,2.43
2019-05-03T01:32:07.213Z,1.03
2019-05-03T01:34:36.807Z,1.43
2019-05-03T01:37:07.640Z,1.10
2019-05-03T01:39:38.998Z,1.30
2019-05-03T01:42:08.898Z,0.50
2019-05-03T01:44:38.814Z,0.87
2019-05-03T01:47:13.415Z,0.97
2019-05-03T01:49:53.876Z,0.67
2019-05-03T01:52:32.454Z,0.73
2019-05-03T01:55:03.457Z,1.73
2019-05-03T01:57:33.655Z,2.07
2019-05-03T02:00:03.889Z,1.07
2019-05-03T02:02:52.422Z,0.73
2019-05-03T02:05:42.782Z,0.60
2019-05-03T02:08:14.465Z,1.37
2019-05-03T02:10:45.132Z,2.00
2019-05-03T02:13:15.861Z,3.60
2019-05-03T02:15:46.307Z,1.77
2019-05-03T02:18:16.701Z,1.10
2019-05-03T02:20:46.912Z,2.10
2019-05-03T02:23:16.974Z,1.43
2019-05-03T02:25:56.204Z,1.20
2019-05-03T02:28:22.020Z,2.30
2019-05-03T02:30:53.550Z,0.97
2019-05-03T02:33:24.514Z,0.80
2019-05-03T02:35:54.284Z,1.20
2019-05-03T02:38:25.063Z,3.17
2019-05-03T02:40:55.343Z,1.77
2019-05-03T02:43:36.676Z,1.17
2019-05-03T02:46:29.318Z,1.70
2019-05-03T02:49:18.725Z,0.90
2019-05-03T02:51:49.426Z,1.93
2019-05-03T02:54:20.161Z,1.20
2019-05-03T02:56:50.071Z,2.00
2019-05-03T02:59:26.135Z,1.07
2019-05-03T03:01:55.928Z,2.43
2019-05-03T03:04:28.067Z,3.17
2019-05-03T03:07:00.335Z,2.23
2019-05-03T03:09:30.859Z,3.17
2019-05-03T03:12:02.647Z,2.70
2019-05-03T03:14:36.271Z,3.93
2019-05-03T03:17:08.010Z,4.70
2019-05-03T03:19:42.318Z,3.03
2019-05-03T03:22:16.972Z,2.23
2019-05-03T03:24:51.461Z,4.30
2019-05-03T03:27:25.908Z,1.90
2019-05-03T03:30:28.803Z,1.83
2019-05-03T03:32:58.199Z,10.30
2019-05-03T03:35:30.738Z,4.10
2019-05-03T03:38:02.402Z,2.70
2019-05-03T03:40:35.640Z,5.10
2019-05-03T03:43:05.629Z,4.90
2019-05-03T03:45:37.382Z,6.67
2019-05-03T03:48:08.741Z,4.70
2019-05-03T03:50:42.147Z,3.70
2019-05-03T03:53:15.555Z,4.00
2019-05-03T03:55:48.606Z,2.73
2019-05-03T03:58:22.806Z,3.17
2019-05-03T04:00:51.039Z,4.97
2019-05-03T04:03:22.544Z,6.00
2019-05-03T04:05:55.399Z,2.20
2019-05-03T04:08:25.476Z,6.53
2019-05-03T04:10:57.801Z,5.03
2019-05-03T04:13:28.376Z,2.77
2019-05-03T04:16:20.989Z,1.90
2019-05-03T04:18:55.843Z,11.57
2019-05-03T04:21:27.739Z,3.90
2019-05-03T04:23:58.358Z,3.30
2019-05-03T04:26:29.919Z,4.50
2019-05-03T04:29:05.444Z,2.27
2019-05-03T04:31:36.760Z,6.17
2019-05-03T04:34:06.923Z,7.17
2019-05-03T04:36:36.875Z,4.33
2019-05-03T04:39:08.366Z,5.53
2019-05-03T04:41:37.965Z,3.37
2019-05-03T04:44:10.562Z,3.37
2019-05-03T04:46:40.206Z,3.20
2019-05-03T04:49:10.650Z,18.93
2019-05-03T04:51:40.668Z,19.77
2019-05-03T04:54:28.201Z,4.70
2019-05-03T04:56:58.439Z,6.83
2019-05-03T04:59:28.860Z,7.40
2019-05-03T05:01:58.659Z,3.63
2019-05-03T05:04:28.667Z,14.30
2019-05-03T05:06:58.536Z,2.13
2019-05-03T05:09:28.251Z,0.70
2019-05-03T05:11:59.086Z,1.77
2019-05-03T05:14:28.818Z,1.40
2019-05-03T05:16:58.516Z,7.20
2019-05-03T05:19:40.948Z,4.07
2019-05-03T05:22:15.374Z,6.03
2019-05-03T05:24:45.002Z,3.30
2019-05-03T05:27:51.402Z,4.33
2019-05-03T05:30:15.216Z,6.13
2019-05-03T05:32:45.439Z,3.67
2019-05-03T05:35:15.761Z,5.63
2019-05-03T05:37:46.379Z,3.43
2019-05-03T05:40:19.682Z,2.17
2019-05-03T05:42:49.447Z,5.13
2019-05-03T05:45:19.128Z,2.40
2019-05-03T05:47:55.458Z,6.63
2019-05-03T05:50:31.455Z,2.27
2019-05-03T05:53:01.800Z,3.43
2019-05-03T05:55:54.967Z,2.93
2019-05-03T05:58:37.421Z,7.93
2019-05-03T06:01:25.947Z,4.77
2019-05-03T06:03:55.896Z,3.37
2019-05-03T06:06:46.628Z,7.07
2019-05-03T06:09:38.053Z,4.50
2019-05-03T06:12:26.584Z,4.27
2019-05-03T06:15:01.386Z,5.70
2019-05-03T06:17:55.476Z,2.90
2019-05-03T06:20:56.582Z,3.60
2019-05-03T06:23:34.735Z,8.17
2019-05-03T06:26:25.316Z,6.03
2019-05-03T06:28:56.442Z,4.30
2019-05-03T06:31:49.574Z,1.27
2019-05-03T06:34:21.907Z,1.70
2019-05-03T06:36:55.299Z,2.07
2019-05-03T06:39:26.030Z,4.10
2019-05-03T06:41:56.615Z,2.93
2019-05-03T06:44:28.598Z,1.70
2019-05-03T06:47:01.098Z,2.70
2019-05-03T06:49:34.461Z,1.97
2019-05-03T06:52:05.929Z,1.00
2019-05-03T06:54:37.907Z,1.67
2019-05-03T06:57:09.818Z,2.73
2019-05-03T06:59:48.404Z,3.93
2019-05-03T07:02:47.442Z,1.70
2019-05-03T07:05:39.146Z,1.67
2019-05-03T07:08:26.812Z,2.07
2019-05-03T07:10:59.036Z,2.67
2019-05-03T07:13:28.854Z,4.17
2019-05-03T07:15:58.743Z,3.10
2019-05-03T07:18:34.985Z,4.10
2019-05-03T07:21:04.892Z,2.50
2019-05-03T07:23:36.187Z,3.60
2019-05-03T07:26:08.108Z,5.73
2019-05-03T07:28:46.933Z,5.80
2019-05-03T07:31:12.141Z,3.90
2019-05-03T07:33:42.315Z,5.47
2019-05-03T07:36:15.453Z,6.47
2019-05-03T07:38:47.745Z,1.27
2019-05-03T07:41:17.626Z,2.63
2019-05-03T07:43:47.944Z,4.30
2019-05-03T07:46:18.550Z,2.73
2019-05-03T07:48:48.299Z,1.37
2019-05-03T07:51:18.649Z,3.43
2019-05-03T07:53:49.823Z,4.97
2019-05-03T07:56:20.031Z,3.03
2019-05-03T07:58:59.785Z,6.53
2019-05-03T08:01:37.238Z,5.63
2019-05-03T08:04:07.280Z,6.67
2019-05-03T08:06:37.429Z,5.33
2019-05-03T08:09:09.246Z,22.17
2019-05-03T08:11:39.777Z,5.23
2019-05-03T08:14:09.592Z,3.80
2019-05-03T08:16:40.339Z,2.97
2019-05-03T08:19:09.871Z,0.80
2019-05-03T08:21:41.584Z,25.13
2019-05-03T08:24:14.933Z,26.00
2019-05-03T08:26:45.399Z,34.83
2019-05-03T08:29:25.979Z,39.07
2019-05-03T08:32:04.909Z,13.03
2019-05-03T08:34:49.348Z,8.87
2019-05-03T08:37:37.504Z,11.33
2019-05-03T08:40:07.331Z,9.67
2019-05-03T08:42:38.877Z,2.23
2019-05-03T08:45:10.148Z,4.90
2019-05-03T08:47:39.788Z,1.43
2019-05-03T08:50:09.568Z,2.77
2019-05-03T08:52:39.222Z,1.03
2019-05-03T08:55:11.953Z,4.13
2019-05-03T08:57:44.825Z,1.03
2019-05-03T09:00:18.268Z,2.50
2019-05-03T09:02:54.937Z,0.90
2019-05-03T09:05:28.934Z,0.90
2019-05-03T09:07:59.995Z,7.33
2019-05-03T09:10:37.091Z,1.60
2019-05-03T09:13:14.791Z,2.93
2019-05-03T09:15:45.192Z,1.77
2019-05-03T09:18:21.005Z,1.20
2019-05-03T09:20:50.625Z,2.23
2019-05-03T09:23:23.961Z,2.97
2019-05-03T09:25:54.867Z,4.90
2019-05-03T09:28:28.900Z,1.73
2019-05-03T09:30:57.388Z,1.10
2019-05-03T09:33:28.108Z,2.10
2019-05-03T09:35:57.803Z,1.90
2019-05-03T09:38:27.356Z,1.30
2019-05-03T09:40:57.547Z,1.23
2019-05-03T09:43:27.551Z,2.33
2019-05-03T09:45:57.732Z,1.40
2019-05-03T09:48:28.882Z,1.30
2019-05-03T09:50:59.733Z,0.40
2019-05-03T09:53:32.446Z,1.43
2019-05-03T09:56:02.253Z,2.73
2019-05-03T09:58:38.140Z,1.47
2019-05-03T10:01:11.682Z,1.40
2019-05-03T10:03:41.683Z,1.93
2019-05-03T10:06:14.329Z,1.80
2019-05-03T10:08:45.367Z,8.97
2019-05-03T10:11:15.706Z,3.33
2019-05-03T10:13:49.052Z,4.37
2019-05-03T10:16:22.148Z,0.73
2019-05-03T10:18:51.945Z,0.80
2019-05-03T10:21:25.779Z,0.80
2019-05-03T10:23:55.202Z,2.33
2019-05-03T10:26:27.163Z,2.07
2019-05-03T10:29:00.444Z,0.40
2019-05-03T10:31:41.413Z,0.73
2019-05-03T10:34:15.546Z,1.80
2019-05-03T10:36:47.451Z,0.30
2019-05-03T10:39:20.615Z,0.97
2019-05-03T10:41:50.806Z,0.50
2019-05-03T10:44:24.412Z,0.77
2019-05-03T10:46:55.778Z,1.53
2019-05-03T10:49:26.330Z,3.30
2019-05-03T10:52:05.611Z,1.03
2019-05-03T10:54:36.050Z,0.70
2019-05-03T10:57:13.288Z,1.17
2019-05-03T10:59:44.859Z,1.27
2019-05-03T11:02:30.632Z,0.40
2019-05-03T11:05:00.418Z,3.00
2019-05-03T11:07:30.837Z,0.37
2019-05-03T11:10:00.626Z,1.87
2019-05-03T11:12:30.580Z,1.30
2019-05-03T11:15:00.798Z,2.03
2019-05-03T11:17:30.345Z,2.00
2019-05-03T11:20:01.164Z,2.13
2019-05-03T11:22:30.814Z,2.90
2019-05-03T11:25:01.253Z,1.43
2019-05-03T11:27:45.852Z,1.57
2019-05-03T11:30:18.036Z,4.20
2019-05-03T11:33:07.581Z,1.20
2019-05-03T11:35:57.507Z,1.80
2019-05-03T11:38:31.217Z,1.30
2019-05-03T11:41:00.992Z,1.67
2019-05-03T11:43:31.982Z,3.10
2019-05-03T11:46:02.064Z,1.40
2019-05-03T11:48:31.584Z,1.10
2019-05-03T11:51:02.499Z,0.50
2019-05-03T11:53:42.082Z,1.57
2019-05-03T11:56:12.273Z,1.63
2019-05-03T11:58:45.669Z,2.07
2019-05-03T12:01:35.887Z,1.03
2019-05-03T12:04:06.774Z,1.77
2019-05-03T12:06:36.957Z,2.97
2019-05-03T12:09:07.514Z,1.43
2019-05-03T12:11:39.598Z,3.73
2019-05-03T12:14:15.154Z,3.40
2019-05-03T12:17:19.036Z,2.47
2019-05-03T12:19:31.598Z,2.17
2019-05-03T12:22:00.984Z,5.67
2019-05-03T12:24:32.755Z,1.73
2019-05-03T12:27:04.748Z,3.33
2019-05-03T12:29:35.270Z,1.20
2019-05-03T12:32:08.126Z,4.80
2019-05-03T12:34:40.233Z,1.40
2019-05-03T12:37:10.190Z,4.80
2019-05-03T12:39:40.268Z,2.30
2019-05-03T12:42:11.216Z,6.77
2019-05-03T12:44:40.772Z,7.03
2019-05-03T12:47:10.824Z,6.63
2019-05-03T12:49:40.922Z,3.80
2019-05-03T12:52:11.652Z,3.60
2019-05-03T12:54:47.728Z,2.10
2019-05-03T12:57:19.193Z,2.43
2019-05-03T12:59:58.352Z,5.77
2019-05-03T13:02:33.635Z,6.20
2019-05-03T13:05:04.857Z,3.30
2019-05-03T13:07:48.913Z,10.17
2019-05-03T13:10:22.277Z,5.20
2019-05-03T13:12:53.278Z,2.87
2019-05-03T13:15:28.084Z,3.73
2019-05-03T13:17:58.110Z,7.10
2019-05-03T13:20:28.247Z,12.00
2019-05-03T13:22:59.508Z,7.50
2019-05-03T13:25:29.309Z,5.67
2019-05-03T13:27:58.900Z,3.53
2019-05-03T13:30:29.743Z,5.17
2019-05-03T13:33:00.693Z,4.23
2019-05-03T13:35:31.131Z,3.17
2019-05-03T13:38:00.700Z,3.07
2019-05-03T13:40:31.286Z,4.07
2019-05-03T13:43:03.932Z,3.10
2019-05-03T13:45:32.943Z,2.23
2019-05-03T13:48:04.964Z,4.23
2019-05-03T13:50:35.495Z,2.47
2019-05-03T13:53:06.166Z,7.50
2019-05-03T13:55:38.971Z,4.00
2019-05-03T13:58:09.044Z,4.73
2019-05-03T14:00:40.599Z,4.00
2019-05-03T14:03:11.043Z,5.30
2019-05-03T14:05:40.542Z,3.43
2019-05-03T14:08:11.250Z,3.43
2019-05-03T14:10:41.559Z,7.23
2019-05-03T14:13:13.331Z,5.40
2019-05-03T14:15:45.202Z,4.90
2019-05-03T14:18:15.624Z,3.23
2019-05-03T14:21:10.747Z,5.17
2019-05-03T14:23:58.319Z,5.60
2019-05-03T14:26:28.735Z,5.90
2019-05-03T14:29:00.266Z,5.97
2019-05-03T14:31:30.737Z,2.83
2019-05-03T14:34:00.407Z,5.67
2019-05-03T14:36:30.626Z,4.83
2019-05-03T14:39:02.308Z,5.43
2019-05-03T14:41:32.694Z,5.10
2019-05-03T14:44:04.959Z,9.77
2019-05-03T14:46:36.278Z,5.43
2019-05-03T14:49:07.777Z,5.53
2019-05-03T14:51:37.602Z,8.13
2019-05-03T14:54:08.908Z,6.03
2019-05-03T14:56:47.153Z,4.60
2019-05-03T14:59:34.982Z,5.03
2019-05-03T15:02:15.423Z,5.20
2019-05-03T15:04:47.232Z,8.63
2019-05-03T15:07:17.053Z,6.77
2019-05-03T15:09:47.366Z,5.20
2019-05-03T15:12:17.835Z,4.73
2019-05-03T15:14:49.319Z,7.43
2019-05-03T15:17:20.151Z,5.63
2019-05-03T15:19:51.533Z,6.80
2019-05-03T15:22:25.197Z,7.40
2019-05-03T15:24:54.974Z,8.97
2019-05-03T15:27:26.617Z,7.97
2019-05-03T15:29:56.183Z,5.47
2019-05-03T15:32:25.937Z,5.33
2019-05-03T15:34:56.017Z,6.73
2019-05-03T15:37:32.353Z,11.23
2019-05-03T15:40:02.513Z,4.57
2019-05-03T15:42:35.164Z,3.00
2019-05-03T15:45:25.201Z,4.83
2019-05-03T15:48:27.807Z,4.90
2019-05-03T15:50:57.886Z,6.07
2019-05-03T15:53:27.752Z,5.53
2019-05-03T15:55:57.772Z,5.90
2019-05-03T15:58:30.249Z,4.83
2019-05-03T16:01:04.716Z,6.10
2019-05-03T16:03:36.641Z,5.50
2019-05-03T16:06:06.991Z,7.00
2019-05-03T16:08:37.467Z,7.33
2019-05-03T16:11:10.211Z,10.07
2019-05-03T16:13:40.256Z,8.57
2019-05-03T16:16:15.003Z,6.47
2019-05-03T16:18:45.037Z,6.13
2019-05-03T16:21:20.312Z,5.63
2019-05-03T16:23:50.472Z,6.23
2019-05-03T16:26:20.346Z,2.80
2019-05-03T16:29:04.580Z,6.17
2019-05-03T16:31:34.629Z,4.27
2019-05-03T16:34:04.484Z,12.87
2019-05-03T16:36:34.713Z,7.17
2019-05-03T16:39:07.402Z,11.50
2019-05-03T16:41:36.979Z,10.10
2019-05-03T16:44:06.974Z,9.23
2019-05-03T16:46:38.162Z,8.77
2019-05-03T16:49:08.432Z,6.73
2019-05-03T16:51:38.437Z,7.23
2019-05-03T16:54:09.424Z,6.40
2019-05-03T16:56:39.603Z,5.13
2019-05-03T16:59:14.779Z,4.03
2019-05-03T17:01:45.543Z,5.57
2019-05-03T17:04:34.563Z,3.47
2019-05-03T17:07:13.048Z,3.07
2019-05-03T17:09:52.486Z,1.47
2019-05-03T17:12:25.914Z,2.10
2019-05-03T17:14:57.081Z,3.00
2019-05-03T17:17:27.754Z,4.00
2019-05-03T17:19:58.083Z,6.17
2019-05-03T17:22:28.034Z,3.50
2019-05-03T17:24:57.914Z,1.07
2019-05-03T17:27:29.965Z,2.57
2019-05-03T17:30:01.828Z,1.40
2019-05-03T17:32:32.211Z,2.03
2019-05-03T17:35:02.198Z,5.80
2019-05-03T17:37:34.523Z,3.97
2019-05-03T17:40:34.868Z,2.00
2019-05-03T17:43:18.685Z,1.60
2019-05-03T17:45:51.904Z,2.63
2019-05-03T17:48:22.179Z,2.20
2019-05-03T17:50:55.104Z,3.37
2019-05-03T17:53:46.504Z,4.60
2019-05-03T17:56:38.428Z,4.00
2019-05-03T17:59:24.459Z,3.60
2019-05-03T18:02:23.499Z,3.67
2019-05-03T18:05:15.390Z,5.37
2019-05-03T18:08:04.289Z,3.07
2019-05-03T18:10:37.752Z,3.40
2019-05-03T18:13:08.566Z,5.77
2019-05-03T18:15:39.795Z,4.67
2019-05-03T18:18:10.257Z,4.63
2019-05-03T18:20:40.179Z,1.47
2019-05-03T18:23:11.548Z,9.50
2019-05-03T18:25:41.418Z,13.47
2019-05-03T18:28:14.818Z,2.80
2019-05-03T18:30:46.189Z,3.33
2019-05-03T18:33:17.129Z,2.07
2019-05-03T18:35:47.228Z,3.63
2019-05-03T18:38:17.167Z,2.80
2019-05-03T18:40:48.490Z,1.97
2019-05-03T18:43:31.575Z,4.67
2019-05-03T18:46:23.440Z,2.60
2019-05-03T18:49:06.687Z,2.23
2019-05-03T18:51:37.915Z,2.33
2019-05-03T18:54:15.501Z,2.63
2019-05-03T18:56:44.426Z,2.27
2019-05-03T18:59:14.914Z,2.80
2019-05-03T19:01:46.698Z,3.13
2019-05-03T19:04:31.400Z,5.03
2019-05-03T19:07:03.810Z,2.50
2019-05-03T19:09:50.811Z,5.37
2019-05-03T19:12:31.457Z,5.30
2019-05-03T19:15:01.695Z,2.83
2019-05-03T19:17:44.192Z,4.83
2019-05-03T19:20:19.551Z,3.40
2019-05-03T19:22:54.431Z,2.20
2019-05-03T19:25:44.001Z,3.10
2019-05-03T19:28:06.029Z,3.67
2019-05-03T19:30:39.461Z,4.33
2019-05-03T19:33:10.081Z,3.80
2019-05-03T19:35:40.094Z,4.17
2019-05-03T19:38:11.707Z,4.77
2019-05-03T19:40:42.159Z,3.20
2019-05-03T19:43:15.157Z,2.53
2019-05-03T19:45:45.674Z,3.53
2019-05-03T19:48:16.962Z,4.57
2019-05-03T19:50:48.056Z,2.87
2019-05-03T19:53:50.348Z,2.40
2019-05-03T19:56:22.635Z,3.43
2019-05-03T19:58:56.652Z,2.27
2019-05-03T20:01:45.519Z,1.70
2019-05-03T20:04:34.485Z,3.63
2019-05-03T20:07:26.837Z,1.93
2019-05-03T20:09:56.721Z,1.87
2019-05-03T20:12:32.407Z,1.10
2019-05-03T20:15:05.193Z,1.50
2019-05-03T20:17:36.103Z,1.03
2019-05-03T20:20:07.231Z,1.53
2019-05-03T20:22:37.521Z,1.73
2019-05-03T20:25:07.750Z,2.63
2019-05-03T20:27:38.345Z,2.80
2019-05-03T20:30:09.962Z,1.40
2019-05-03T20:32:40.916Z,2.20
2019-05-03T20:35:18.765Z,4.63
2019-05-03T20:37:45.703Z,5.43
2019-05-03T20:40:17.732Z,9.07
2019-05-03T20:43:13.256Z,7.67
2019-05-03T20:46:15.471Z,2.97
2019-05-03T20:48:48.279Z,2.10
2019-05-03T20:51:18.232Z,2.20
2019-05-03T20:53:48.263Z,2.23
2019-05-03T20:56:18.338Z,2.13
2019-05-03T20:58:48.284Z,1.93
2019-05-03T21:01:23.205Z,1.40
2019-05-03T21:03:54.341Z,1.73
2019-05-03T21:06:34.899Z,2.83
2019-05-03T21:08:57.169Z,2.83
2019-05-03T21:11:31.908Z,1.20
2019-05-03T21:14:01.639Z,1.47
2019-05-03T21:16:38.169Z,3.20
2019-05-03T21:19:35.187Z,1.30
2019-05-03T21:22:12.065Z,1.20
2019-05-03T21:25:03.754Z,1.40
2019-05-03T21:27:35.295Z,1.37
2019-05-03T21:30:06.471Z,1.10
2019-05-03T21:32:38.229Z,1.20
2019-05-03T21:35:08.696Z,1.80
2019-05-03T21:37:38.377Z,2.67
2019-05-03T21:40:10.686Z,1.57
2019-05-03T21:42:42.889Z,0.80
2019-05-03T21:45:15.107Z,2.50
2019-05-03T21:47:55.763Z,1.83
2019-05-03T21:50:35.542Z,1.83
2019-05-03T21:53:05.837Z,1.00
2019-05-03T21:55:36.921Z,1.10
2019-05-03T21:58:08.215Z,1.00
2019-05-03T22:01:07.170Z,2.30
2019-05-03T22:03:37.031Z,2.07
2019-05-03T22:06:11.714Z,1.40
2019-05-03T22:08:42.614Z,2.57
2019-05-03T22:11:15.024Z,2.03
2019-05-03T22:13:46.074Z,4.53
2019-05-03T22:16:32.343Z,2.70
2019-05-03T22:19:05.633Z,2.40
2019-05-03T22:21:40.848Z,1.37
2019-05-03T22:24:35.462Z,3.60
2019-05-03T22:27:15.362Z,1.87
2019-05-03T22:29:46.730Z,2.13
2019-05-03T22:32:17.625Z,3.23
2019-05-03T22:34:47.338Z,1.70
2019-05-03T22:37:17.808Z,2.50
2019-05-03T22:39:47.826Z,3.70
2019-05-03T22:42:25.298Z,2.33
2019-05-03T22:44:57.445Z,2.13
2019-05-03T22:47:27.501Z,3.07
2019-05-03T22:49:57.850Z,1.60
2019-05-03T22:52:27.851Z,1.90
2019-05-03T22:54:59.428Z,2.23
2019-05-03T22:57:29.777Z,3.57
2019-05-03T23:00:00.399Z,3.60
2019-05-03T23:02:30.249Z,1.83
2019-05-03T23:05:02.046Z,1.97
2019-05-03T23:07:34.906Z,2.03
2019-05-03T23:10:04.604Z,2.57
2019-05-03T23:12:34.930Z,1.30
2019-05-03T23:15:06.164Z,1.43
2019-05-03T23:17:35.946Z,2.30
2019-05-03T23:20:11.993Z,1.67
2019-05-03T23:22:45.550Z,2.27
2019-05-03T23:25:15.428Z,2.73
2019-05-03T23:27:45.473Z,1.80
2019-05-03T23:30:15.491Z,2.57
2019-05-03T23:32:46.565Z,2.93
2019-05-03T23:35:18.938Z,4.83
2019-05-03T23:37:50.223Z,1.90
2019-05-03T23:40:22.291Z,3.00
2019-05-03T23:42:54.472Z,2.93
2019-05-03T23:45:25.539Z,2.27
2019-05-03T23:47:56.785Z,2.83
2019-05-03T23:50:27.217Z,1.67
2019-05-03T23:52:59.858Z,2.00
2019-05-03T23:55:35.679Z,1.60
2019-05-03T23:58:07.683Z,1.70
